Wellington, New Zealand
Current Conditions -  °F | °C
As of 6:00 PM on Tuesday 21 Oct 2014 (Local Time) from NZWN Reporting Station
Few Clouds Few Clouds  
Wind Chill: 55°   Ceiling: Unl
Heat Index: 55°   Visibility: 6mi
Dew Point: 46°   Wind: 17mph
Humidity: 72%   Direction: 160°SSE
Pressure: 30.12"   Gusts: NA
Location:  41.29°S, 174.78°E
Report Text: NZWN 210600Z AUTO 16015KT 9999 FEW050/// 13/08 Q1020 NOSIG
Loading
Personal Weather Stations






























Interactive Weather Map New forecast layout! Learn more

10-Day Weather Forecast

Advertisements
Track Severe Weather on mobile